Time;durP1;ratioP1;P1;durP2;ratioP2;P2;SDS_P1;SDS_P2;PMS_P1;PMS_P2;Temp;Humidity;BMP_temperature;BMP_pressure;BME280_temperature;BME280_humidity;BME280_pressure;Samples;Min_cycle;Max_cycle;Signal;HPM_P1;HPM_P2
2024/03/13 00:02:19;;;;;;;;;2.25;1.50;;;;;14.10;95.52;101324.38;5082004;27;47013;-64
2024/03/13 00:04:44;;;;;;;;;2.00;2.00;;;;;14.07;95.42;101317.28;5082794;27;45393;-64
2024/03/13 00:07:10;;;;;;;;;2.50;2.50;;;;;14.13;95.61;101326.03;5082271;27;45325;-64
2024/03/13 00:09:52;;;;;;;;;3.00;2.00;;;;;14.13;95.71;101328.72;5082328;27;45328;-64
2024/03/13 00:12:17;;;;;;;;;1.00;1.00;;;;;14.10;95.50;101329.75;5081620;27;46036;-64
2024/03/13 00:14:52;;;;;;;;;2.00;2.00;;;;;14.11;95.56;101326.09;5081223;28;62315;-64
2024/03/13 00:17:21;;;;;;;;;2.00;1.75;;;;;14.17;95.63;101333.06;5069186;28;45398;-64
2024/03/13 00:19:50;;;;;;;;;1.00;1.00;;;;;14.19;95.54;101341.94;5081532;27;45591;-64
2024/03/13 00:22:20;;;;;;;;;1.25;1.25;;;;;14.20;95.42;101344.56;5074425;27;46522;-64
2024/03/13 00:24:50;;;;;;;;;2.00;1.00;;;;;14.20;95.29;101340.97;5075986;28;45478;-64
2024/03/13 00:27:16;;;;;;;;;1.00;1.00;;;;;14.15;95.31;101329.53;5081459;27;45459;-65
2024/03/13 00:29:44;;;;;;;;;1.25;1.25;;;;;14.17;95.50;101333.94;5081535;27;45466;-64
2024/03/13 00:32:10;;;;;;;;;2.00;2.00;;;;;14.10;95.51;101329.75;5081849;27;45495;-64
2024/03/13 00:34:37;;;;;;;;;3.00;2.25;;;;;14.16;95.49;101342.91;5081536;28;45252;-64
2024/03/13 00:37:03;;;;;;;;;1.00;1.00;;;;;14.16;95.83;101340.22;5081811;27;45442;-64
2024/03/13 00:39:29;;;;;;;;;3.00;2.00;;;;;14.17;96.20;101338.44;5081514;27;45460;-64
2024/03/13 00:41:54;;;;;;;;;0.75;0.00;;;;;14.15;95.91;101334.91;5081580;28;46011;-64
2024/03/13 00:44:19;;;;;;;;;1.25;1.25;;;;;14.15;95.91;101333.13;5081118;27;45381;-64
2024/03/13 00:46:46;;;;;;;;;2.75;2.00;;;;;14.18;96.22;101335.69;5081507;28;45399;-64
2024/03/13 00:49:12;;;;;;;;;2.25;1.00;;;;;14.13;96.13;101336.78;5081305;27;45331;-64
2024/03/13 00:51:37;;;;;;;;;1.50;1.50;;;;;14.18;96.18;101345.53;5080833;27;46224;-64
2024/03/13 00:54:04;;;;;;;;;1.50;1.00;;;;;14.16;96.04;101336.69;5081483;27;45233;-64
2024/03/13 00:56:31;;;;;;;;;2.00;2.00;;;;;14.12;95.97;101327.00;5081457;27;45286;-64
2024/03/13 00:58:57;;;;;;;;;1.50;1.50;;;;;14.19;96.33;101345.47;5081466;27;45434;-64
2024/03/13 01:01:23;;;;;;;;;2.75;2.50;;;;;14.20;96.06;101340.97;5080982;27;46928;-64
2024/03/13 01:03:48;;;;;;;;;3.00;3.00;;;;;14.19;96.31;101337.44;5081236;27;45392;-64
2024/03/13 01:06:14;;;;;;;;;2.50;2.00;;;;;14.15;96.45;101341.19;5080420;28;55939;-64
2024/03/13 01:08:39;;;;;;;;;2.50;2.00;;;;;14.19;96.43;101341.94;5081092;27;45413;-64
2024/03/13 01:11:05;;;;;;;;;4.00;4.00;;;;;14.19;96.63;101345.47;5081327;27;46330;-64
2024/03/13 01:13:30;;;;;;;;;4.75;4.75;;;;;14.15;96.48;101343.88;5080958;28;45367;-64
2024/03/13 01:15:55;;;;;;;;;6.00;5.25;;;;;14.17;96.62;101347.34;5080587;28;45433;-64
2024/03/13 01:18:21;;;;;;;;;6.50;6.50;;;;;14.18;96.54;101349.13;5080705;27;45472;-64
2024/03/13 01:20:49;;;;;;;;;6.00;6.00;;;;;14.13;96.49;101343.03;5080489;27;54944;-64
2024/03/13 01:23:15;;;;;;;;;8.25;7.75;;;;;14.15;96.66;101340.28;5080584;27;45464;-64
2024/03/13 01:25:44;;;;;;;;;7.50;7.50;;;;;14.19;96.68;101352.69;5080628;27;45491;-64
2024/03/13 01:28:09;;;;;;;;;8.00;6.75;;;;;14.19;96.49;101350.00;5079542;28;45351;-64
2024/03/13 01:30:35;;;;;;;;;5.50;5.50;;;;;14.19;96.67;101348.16;5080834;27;45365;-64
2024/03/13 01:33:00;;;;;;;;;6.50;5.00;;;;;14.19;96.58;101348.16;5079897;28;58849;-64
2024/03/13 01:35:26;;;;;;;;;6.75;6.75;;;;;14.18;96.82;101348.22;5080923;27;45350;-64
2024/03/13 01:38:01;;;;;;;;;7.75;7.25;;;;;14.15;96.66;101340.28;5080648;27;45546;-64
2024/03/13 01:57:13;;;;;;;;;6.00;5.00;;;;;14.13;96.82;101345.69;5080440;28;45310;-64
2024/03/13 02:02:26;;;;;;;;;5.25;5.25;;;;;14.08;96.59;101337.84;5080017;28;45504;-64
2024/03/13 02:04:53;;;;;;;;;8.00;5.25;;;;;14.00;96.48;101315.78;5080425;28;45307;-64
2024/03/13 02:07:20;;;;;;;;;3.75;3.00;;;;;14.12;96.31;101337.75;5080445;28;45447;-64
2024/03/13 02:09:48;;;;;;;;;4.00;4.00;;;;;14.14;96.25;101338.53;5080386;27;45520;-64
2024/03/13 02:12:13;;;;;;;;;5.00;3.00;;;;;14.14;96.08;101335.88;5079869;28;46179;-64
2024/03/13 02:14:39;;;;;;;;;8.75;5.50;;;;;14.10;96.03;101335.09;5080031;27;45541;-64
2024/03/13 02:17:06;;;;;;;;;5.25;4.25;;;;;14.14;96.02;101334.03;5078234;28;53351;-64
2024/03/13 02:19:35;;;;;;;;;3.50;3.25;;;;;14.14;95.65;101335.88;5080081;27;45401;-64
2024/03/13 02:22:04;;;;;;;;;6.00;5.00;;;;;14.13;95.64;101331.41;5078443;28;46219;-64
2024/03/13 02:24:30;;;;;;;;;5.50;4.00;;;;;14.05;95.38;101319.16;5079303;27;45560;-64
2024/03/13 02:26:55;;;;;;;;;4.50;4.50;;;;;14.09;95.49;101330.66;5066360;28;45380;-64
2024/03/13 02:29:20;;;;;;;;;6.00;4.00;;;;;14.09;95.40;101333.34;5079799;27;45523;-64
2024/03/13 02:31:46;;;;;;;;;1.00;1.00;;;;;14.08;95.44;101329.78;5079691;28;45418;-64
2024/03/13 02:34:13;;;;;;;;;4.00;4.00;;;;;14.09;95.32;101331.53;5079538;28;45403;-64
2024/03/13 02:36:38;;;;;;;;;7.00;4.25;;;;;14.08;95.20;101328.91;5080118;27;45412;-64
2024/03/13 02:39:04;;;;;;;;;5.50;4.50;;;;;14.01;94.95;101317.50;5079923;27;45258;-64
2024/03/13 02:41:29;;;;;;;;;5.25;5.25;;;;;14.05;95.25;101335.28;5079818;27;45810;-64
2024/03/13 02:43:57;;;;;;;;;4.75;4.75;;;;;14.01;94.96;101320.19;5079287;28;51854;-64
2024/03/13 02:46:23;;;;;;;;;5.00;5.00;;;;;14.04;94.78;101330.81;5072212;27;45523;-64
2024/03/13 02:48:48;;;;;;;;;6.00;6.00;;;;;14.04;95.02;101324.59;5079422;28;45376;-64
2024/03/13 02:51:13;;;;;;;;;6.00;5.50;;;;;14.03;94.91;101331.78;5079455;27;46008;-64
2024/03/13 02:53:39;;;;;;;;;7.00;5.00;;;;;13.98;94.91;101323.03;5079661;28;45385;-64
2024/03/13 02:56:07;;;;;;;;;3.75;3.75;;;;;13.99;94.75;101324.75;5079520;28;45428;-64
2024/03/13 02:58:33;;;;;;;;;6.00;4.75;;;;;13.98;94.61;101324.81;5079385;27;45275;-64
2024/03/13 03:01:01;;;;;;;;;6.00;4.00;;;;;13.92;94.34;101315.19;5079164;27;46973;-64
2024/03/13 03:03:27;;;;;;;;;6.25;3.50;;;;;13.95;94.55;101322.25;5079382;27;45254;-64
2024/03/13 03:05:52;;;;;;;;;7.75;4.75;;;;;13.91;94.99;101316.13;5079740;27;45373;-64
2024/03/13 03:08:18;;;;;;;;;6.50;5.50;;;;;13.90;94.50;101323.28;5078929;28;47487;-64
2024/03/13 03:10:43;;;;;;;;;6.75;6.00;;;;;13.87;94.42;101314.50;5079587;27;45551;-64
2024/03/13 03:13:10;;;;;;;;;5.00;4.75;;;;;13.85;94.36;101321.72;5078602;28;58605;-64
2024/03/13 03:15:36;;;;;;;;;7.00;5.50;;;;;13.85;94.30;101327.09;5078835;27;45428;-64
2024/03/13 03:18:03;;;;;;;;;4.00;4.00;;;;;13.87;94.45;101328.78;5079251;27;45464;-64
2024/03/13 03:20:28;;;;;;;;;7.00;6.00;;;;;13.84;94.33;101333.38;5079178;27;45512;-64
2024/03/13 03:22:54;;;;;;;;;4.50;4.50;;;;;13.85;94.08;101329.78;5078999;27;45312;-64
2024/03/13 03:25:19;;;;;;;;;4.25;3.00;;;;;13.84;94.14;101339.63;5078739;27;46021;-64
2024/03/13 03:27:44;;;;;;;;;7.00;4.50;;;;;13.78;94.13;101334.50;5078295;28;58286;-64
2024/03/13 03:30:13;;;;;;;;;5.50;2.50;;;;;13.81;94.14;101338.84;5078833;28;46260;-64
2024/03/13 03:32:38;;;;;;;;;7.75;4.75;;;;;13.80;94.23;101335.31;5078934;27;45416;-64
2024/03/13 03:35:05;;;;;;;;;5.50;4.75;;;;;13.78;93.95;101338.97;5078976;27;45466;-64
2024/03/13 03:37:31;;;;;;;;;5.25;3.25;;;;;13.77;94.06;101342.59;5078646;27;45404;-64
2024/03/13 03:39:56;;;;;;;;;7.25;6.00;;;;;13.76;94.19;101347.06;5079024;27;46117;-64
2024/03/13 03:42:24;;;;;;;;;8.50;4.50;;;;;13.74;94.16;101340.88;5078850;27;45357;-64
2024/03/13 03:44:49;;;;;;;;;5.00;5.00;;;;;13.69;94.18;101338.34;5078594;27;45377;-64
2024/03/13 03:47:15;;;;;;;;;4.00;4.00;;;;;13.69;94.06;101342.84;5075751;27;45402;-64
2024/03/13 03:49:41;;;;;;;;;4.00;4.00;;;;;13.68;94.17;101338.41;5078326;27;46278;-64
2024/03/13 03:52:07;;;;;;;;;4.00;3.75;;;;;13.66;93.89;101346.50;5078901;27;45262;-64
2024/03/13 03:54:34;;;;;;;;;5.50;3.25;;;;;13.65;94.37;101341.22;5079023;27;45429;-64
2024/03/13 03:56:59;;;;;;;;;4.25;4.25;;;;;13.67;94.58;101340.22;5078597;27;45429;-64
2024/03/13 03:59:25;;;;;;;;;3.25;3.25;;;;;13.67;94.23;101334.00;5078460;27;46220;-64
2024/03/13 04:01:50;;;;;;;;;6.00;4.00;;;;;13.67;94.44;101350.97;5078614;27;45394;-64
2024/03/13 04:04:15;;;;;;;;;5.00;4.00;;;;;13.63;94.26;101346.66;5077961;28;57475;-64
2024/03/13 04:06:43;;;;;;;;;4.50;3.00;;;;;13.66;94.22;101340.28;5078300;27;53785;-64
2024/03/13 04:09:15;;;;;;;;;4.50;4.50;;;;;13.67;94.35;101340.22;5078800;27;45324;-64
2024/03/13 04:11:43;;;;;;;;;5.00;4.00;;;;;13.68;94.42;101349.16;5078389;27;45393;-64
2024/03/13 04:14:10;;;;;;;;;6.00;3.25;;;;;13.69;94.56;101338.34;5078648;27;45349;-64
2024/03/13 04:16:36;;;;;;;;;5.00;4.00;;;;;13.68;93.89;101346.47;5077320;27;45338;-64
2024/03/13 04:19:02;;;;;;;;;5.00;3.00;;;;;13.67;94.22;101342.03;5078573;27;45370;-64
2024/03/13 04:21:27;;;;;;;;;5.50;4.75;;;;;13.66;93.93;101342.97;5077057;28;45710;-64
2024/03/13 04:23:53;;;;;;;;;5.75;4.75;;;;;13.66;93.92;101342.97;5077995;28;61347;-65
2024/03/13 04:26:20;;;;;;;;;8.00;5.75;;;;;13.68;93.94;101338.41;5077931;27;45633;-64
2024/03/13 04:28:45;;;;;;;;;4.50;4.00;;;;;13.65;93.88;101344.78;5078604;28;45573;-64
2024/03/13 04:31:13;;;;;;;;;8.25;7.25;;;;;13.61;93.86;101329.72;5078081;28;45407;-64
2024/03/13 04:33:42;;;;;;;;;6.00;5.00;;;;;13.68;93.70;101346.47;5078214;28;45263;-64
2024/03/13 04:36:07;;;;;;;;;5.75;4.00;;;;;13.64;93.94;101336.78;5077811;27;58925;-64
2024/03/13 04:38:33;;;;;;;;;6.00;4.25;;;;;13.60;93.98;101338.72;5078217;27;45438;-64
2024/03/13 04:40:58;;;;;;;;;6.50;5.00;;;;;13.64;93.86;101347.50;5079376;28;45346;-64
2024/03/13 04:43:23;;;;;;;;;4.00;4.00;;;;;13.64;93.81;101340.34;5081851;28;45464;-64
2024/03/13 04:45:49;;;;;;;;;5.25;5.00;;;;;13.62;93.53;101342.19;5080225;27;53809;-64
2024/03/13 04:48:14;;;;;;;;;5.25;4.25;;;;;13.61;93.60;101339.56;5081422;27;45411;-64
2024/03/13 04:50:39;;;;;;;;;4.25;4.00;;;;;13.65;93.89;101358.19;5081393;28;45290;-64
2024/03/13 04:53:05;;;;;;;;;5.00;5.00;;;;;13.60;93.60;101341.38;5081860;27;45377;-64
2024/03/13 04:55:30;;;;;;;;;5.00;5.00;;;;;13.65;93.57;101351.97;5081570;27;45604;-64
2024/03/13 04:57:59;;;;;;;;;4.50;4.50;;;;;13.64;93.57;101353.75;5080671;28;68602;-64
2024/03/13 05:00:24;;;;;;;;;5.00;4.00;;;;;13.60;93.63;101348.53;5081263;27;45911;-64
2024/03/13 05:02:51;;;;;;;;;2.50;2.50;;;;;13.61;93.59;101352.97;5081203;27;45362;-64
2024/03/13 05:05:16;;;;;;;;;4.50;3.00;;;;;13.65;93.49;101360.00;5076876;28;45561;-64
2024/03/13 05:07:42;;;;;;;;;4.50;4.50;;;;;13.66;93.48;101364.44;5080679;28;57533;-64
2024/03/13 05:10:09;;;;;;;;;5.00;5.00;;;;;13.64;93.68;101352.88;5080669;28;57374;-64
2024/03/13 05:12:36;;;;;;;;;6.00;6.00;;;;;13.54;93.40;101341.59;5081201;27;45479;-64
2024/03/13 05:15:03;;;;;;;;;6.00;5.00;;;;;13.62;93.35;101354.75;5080115;27;45547;-64
2024/03/13 05:17:28;;;;;;;;;7.00;5.00;;;;;13.59;93.63;101353.03;5080712;27;46158;-64
2024/03/13 05:19:54;;;;;;;;;8.00;6.25;;;;;13.58;93.47;101351.31;5080958;27;45436;-64
2024/03/13 05:22:19;;;;;;;;;7.00;5.50;;;;;13.52;93.46;101343.47;5080879;27;45285;-64
2024/03/13 05:24:48;;;;;;;;;6.50;5.00;;;;;13.56;93.57;101347.78;5080104;27;61986;-64
2024/03/13 05:27:15;;;;;;;;;6.00;4.50;;;;;13.55;93.50;101347.81;5080642;27;45421;-64
2024/03/13 05:29:40;;;;;;;;;5.25;4.00;;;;;13.53;93.60;101347.88;5080653;27;45382;-64
2024/03/13 05:32:13;;;;;;;;;5.25;4.00;;;;;13.51;93.57;101347.97;5081036;27;45460;-64
2024/03/13 05:34:38;;;;;;;;;5.75;4.00;;;;;13.43;93.26;101333.94;5080883;27;45398;-64
2024/03/13 05:37:04;;;;;;;;;6.00;4.50;;;;;13.52;93.67;101355.06;5080448;28;45496;-64
2024/03/13 05:39:29;;;;;;;;;4.00;3.00;;;;;13.50;93.52;101348.00;5080757;27;45318;-64
2024/03/13 05:41:54;;;;;;;;;5.75;3.50;;;;;13.46;93.52;101357.94;5080995;27;45457;-64
2024/03/13 05:44:20;;;;;;;;;4.25;4.00;;;;;13.42;93.28;101350.94;5079640;28;62440;-64
2024/03/13 05:46:45;;;;;;;;;5.00;4.25;;;;;13.42;93.31;101361.66;5079546;27;62258;-64
2024/03/13 05:49:11;;;;;;;;;5.00;5.00;;;;;13.44;93.49;101367.00;5080442;27;45418;-64
2024/03/13 05:51:36;;;;;;;;;5.75;5.75;;;;;13.45;93.60;101371.44;5080559;27;45368;-64
2024/03/13 05:54:02;;;;;;;;;4.75;4.75;;;;;13.46;93.49;101373.16;5080554;27;45414;-64
2024/03/13 05:56:28;;;;;;;;;11.75;9.25;;;;;13.46;93.40;101373.16;5080040;27;46474;-64
2024/03/13 05:58:53;;;;;;;;;2.50;2.50;;;;;13.47;93.21;101370.44;5080276;27;45317;-64
2024/03/13 06:01:22;;;;;;;;;6.50;4.75;;;;;13.49;93.33;101381.97;5080613;28;45337;-64
2024/03/13 06:03:49;;;;;;;;;8.75;7.75;;;;;13.46;93.17;101373.16;5080306;28;45505;-64
2024/03/13 06:06:15;;;;;;;;;10.50;9.75;;;;;13.43;93.25;101365.22;5080435;27;46180;-64
2024/03/13 06:08:40;;;;;;;;;11.00;10.00;;;;;13.46;93.47;101374.03;5080175;27;45417;-64
2024/03/13 06:11:05;;;;;;;;;13.25;10.00;;;;;13.43;93.46;101371.47;5080111;27;45613;-64
2024/03/13 06:13:31;;;;;;;;;9.00;9.00;;;;;13.45;93.42;101379.47;5079730;27;45555;-64
2024/03/13 06:15:56;;;;;;;;;9.00;9.00;;;;;13.41;93.43;101370.63;5078760;27;46282;-64
2024/03/13 06:18:23;;;;;;;;;21.75;19.50;;;;;13.44;93.46;101375.91;5079837;28;45361;-64
2024/03/13 06:20:48;;;;;;;;;22.75;18.75;;;;;13.45;93.44;101382.16;5080170;27;45405;-64
2024/03/13 06:23:16;;;;;;;;;19.25;16.75;;;;;13.36;93.50;101369.91;5079777;28;45493;-64
2024/03/13 06:25:43;;;;;;;;;16.00;14.50;;;;;13.41;93.25;101380.50;5079536;28;45791;-64
2024/03/13 06:30:52;;;;;;;;;12.00;10.25;;;;;13.43;93.32;101389.34;5078621;28;45417;-64
2024/03/13 06:33:18;;;;;;;;;15.75;15.00;;;;;13.41;93.40;101391.22;5079195;27;45338;-64
2024/03/13 06:35:43;;;;;;;;;11.25;11.25;;;;;13.41;93.29;101388.53;5079100;27;69663;-64
2024/03/13 06:38:08;;;;;;;;;10.25;9.75;;;;;13.39;93.28;101387.72;5078836;28;59699;-64
2024/03/13 06:40:34;;;;;;;;;6.25;5.75;;;;;13.39;93.18;101387.72;5080099;28;45404;-64
2024/03/13 06:42:59;;;;;;;;;4.50;4.50;;;;;13.37;93.35;101394.94;5077730;28;58910;-64
2024/03/13 06:45:24;;;;;;;;;5.25;5.25;;;;;13.40;93.01;101394.81;5079335;27;45365;-64
2024/03/13 06:47:51;;;;;;;;;4.50;3.75;;;;;13.39;93.35;101398.44;5079120;27;45476;-64
2024/03/13 06:50:17;;;;;;;;;5.75;4.25;;;;;13.40;93.27;101401.09;5079787;27;45389;-64
2024/03/13 06:52:43;;;;;;;;;7.00;5.00;;;;;13.38;93.13;101402.03;5079548;27;45390;-64
2024/03/13 06:55:08;;;;;;;;;2.00;2.00;;;;;13.40;93.24;101400.19;5079525;27;46271;-64
2024/03/13 06:57:34;;;;;;;;;7.50;7.25;;;;;13.33;93.39;101389.69;5079291;27;45405;-64
2024/03/13 06:59:59;;;;;;;;;5.25;5.25;;;;;13.43;93.54;101406.34;5086454;27;46873;-64
2024/03/13 07:02:25;;;;;;;;;7.00;4.50;;;;;13.43;93.74;101406.34;5088359;27;45443;-65
2024/03/13 07:04:50;;;;;;;;;6.50;5.75;;;;;13.43;93.50;101403.66;5079418;28;45299;-65
2024/03/13 07:07:15;;;;;;;;;5.00;5.00;;;;;13.46;93.14;101402.66;5078695;27;45221;-64
2024/03/13 07:09:42;;;;;;;;;6.75;4.00;;;;;13.47;93.27;101407.13;5079455;27;45309;-64
2024/03/13 07:12:07;;;;;;;;;5.00;5.00;;;;;13.48;93.03;101408.84;5079019;27;45322;-65
2024/03/13 07:14:33;;;;;;;;;5.50;4.75;;;;;13.50;93.19;101407.00;5077527;27;45397;-65
2024/03/13 07:16:58;;;;;;;;;3.50;3.50;;;;;13.50;93.23;101407.88;5079933;27;46264;-65
2024/03/13 07:19:23;;;;;;;;;4.00;4.00;;;;;13.51;93.12;101404.28;5079165;27;45305;-65
2024/03/13 07:21:49;;;;;;;;;4.00;3.75;;;;;13.53;93.07;101399.75;5079060;27;45424;-65
2024/03/13 07:24:17;;;;;;;;;5.50;4.25;;;;;13.53;93.22;101396.16;5080387;27;45410;-65
2024/03/13 07:26:43;;;;;;;;;4.75;4.00;;;;;13.53;92.94;101401.53;5079287;27;45693;-65
2024/03/13 07:29:09;;;;;;;;;3.00;3.00;;;;;13.56;92.84;101409.47;5078717;27;45340;-65
2024/03/13 07:31:34;;;;;;;;;3.50;3.50;;;;;13.56;92.57;101412.16;5078299;27;45406;-65
2024/03/13 07:34:00;;;;;;;;;4.75;4.00;;;;;13.54;92.64;101405.97;5078732;28;45309;-65
2024/03/13 07:36:25;;;;;;;;;3.25;1.75;;;;;13.57;92.88;101407.69;5080674;27;45414;-65
2024/03/13 07:38:50;;;;;;;;;2.00;2.00;;;;;13.59;92.72;101416.56;5079163;27;45332;-64
2024/03/13 07:41:16;;;;;;;;;3.00;3.00;;;;;13.60;92.53;101420.97;5085240;27;45431;-65
2024/03/13 07:43:42;;;;;;;;;5.75;4.75;;;;;13.55;92.68;101407.72;5071956;27;46778;-65
2024/03/13 07:46:11;;;;;;;;;6.25;5.00;;;;;13.57;92.57;101402.31;5076451;27;45516;-65
2024/03/13 07:48:37;;;;;;;;;6.00;5.00;;;;;13.64;92.49;101415.44;5069450;28;45393;-65
2024/03/13 07:51:04;;;;;;;;;5.25;3.50;;;;;13.65;92.46;101422.59;5076104;27;45382;-65
2024/03/13 07:53:30;;;;;;;;;5.00;5.00;;;;;13.65;92.53;101421.72;5077402;28;46195;-66
2024/03/13 07:55:55;;;;;;;;;4.00;4.00;;;;;13.65;92.30;101410.97;5070785;27;45525;-64
2024/03/13 07:58:21;;;;;;;;;5.75;3.00;;;;;13.66;91.99;101418.94;5073442;27;47130;-64
2024/03/13 08:00:46;;;;;;;;;2.25;2.25;;;;;13.66;92.03;101421.63;5075752;27;45403;-64
2024/03/13 08:03:12;;;;;;;;;2.00;2.00;;;;;13.65;91.74;101421.72;5075142;27;45960;-64
2024/03/13 08:05:37;;;;;;;;;2.75;2.75;;;;;13.65;92.04;101427.94;5077184;27;45438;-64
2024/03/13 08:08:03;;;;;;;;;3.00;3.00;;;;;13.58;92.19;101415.69;5072618;27;45449;-64
2024/03/13 08:10:28;;;;;;;;;5.00;3.75;;;;;13.65;91.80;101422.59;5073355;27;45830;-63
2024/03/13 08:12:54;;;;;;;;;5.00;3.00;;;;;13.66;91.85;101421.63;5076925;27;46989;-63
2024/03/13 08:15:20;;;;;;;;;3.00;3.00;;;;;13.64;91.60;101420.81;5077347;27;45433;-63
2024/03/13 08:17:45;;;;;;;;;3.00;3.00;;;;;13.65;91.69;101424.41;5080786;27;45511;-63
2024/03/13 08:20:16;;;;;;;;;1.75;1.75;;;;;13.66;91.36;101427.00;5083605;27;54848;-66
2024/03/13 08:22:44;;;;;;;;;3.75;3.00;;;;;13.66;91.89;101429.69;5079902;27;47255;-63
2024/03/13 08:25:16;;;;;;;;;5.25;3.00;;;;;13.64;91.41;101428.88;5079104;27;45527;-64
2024/03/13 08:27:51;;;;;;;;;5.50;3.75;;;;;13.69;91.44;101429.56;5078769;27;45891;-65
2024/03/13 08:30:17;;;;;;;;;3.00;3.00;;;;;13.71;91.59;101427.75;5088148;27;45543;-66
2024/03/13 08:32:44;;;;;;;;;2.00;2.00;;;;;13.75;91.49;101435.66;5079738;27;46130;-66
2024/03/13 08:35:09;;;;;;;;;2.75;2.75;;;;;13.76;91.04;101438.28;5078849;27;45550;-66
2024/03/13 08:37:34;;;;;;;;;2.50;2.00;;;;;13.76;91.07;101434.75;5078364;27;45350;-66
2024/03/13 08:40:01;;;;;;;;;3.25;2.00;;;;;13.79;91.04;101437.31;5087176;27;45382;-66
2024/03/13 08:42:27;;;;;;;;;2.50;2.50;;;;;13.77;91.35;101442.75;5079735;27;46588;-65
2024/03/13 08:44:53;;;;;;;;;3.00;3.00;;;;;13.82;90.98;101448.81;5079005;27;45337;-66
2024/03/13 08:47:18;;;;;;;;;3.25;3.00;;;;;13.82;91.26;101456.88;5079595;28;45569;-66
2024/03/13 08:49:45;;;;;;;;;5.50;4.00;;;;;13.84;91.11;101451.47;5078601;27;45357;-65
2024/03/13 08:52:12;;;;;;;;;5.00;3.00;;;;;13.89;90.96;101460.22;5079606;27;46175;-66
2024/03/13 08:54:38;;;;;;;;;2.00;2.00;;;;;13.90;90.83;101462.84;5080043;27;45572;-66
2024/03/13 08:57:03;;;;;;;;;1.00;1.00;;;;;13.87;90.32;101460.28;5078889;27;45437;-65
2024/03/13 08:59:28;;;;;;;;;2.25;2.25;;;;;13.97;90.51;101465.34;5079609;27;45511;-66
2024/03/13 09:01:54;;;;;;;;;2.00;2.00;;;;;13.95;90.59;101462.69;5086677;27;65267;-66
2024/03/13 09:04:21;;;;;;;;;1.75;1.00;;;;;14.01;90.25;101472.34;5079720;28;45342;-66
2024/03/13 09:06:49;;;;;;;;;1.50;1.25;;;;;14.03;89.95;101473.16;5073555;27;45501;-66
2024/03/13 09:09:23;;;;;;;;;1.50;1.50;;;;;14.04;89.73;101469.53;5078895;28;45426;-66
2024/03/13 09:11:51;;;;;;;;;2.50;2.25;;;;;14.07;89.77;101472.13;5085571;27;46363;-66
2024/03/13 09:14:17;;;;;;;;;2.50;2.00;;;;;14.08;89.58;101474.75;5083049;27;45677;-66
2024/03/13 09:16:43;;;;;;;;;1.00;1.00;;;;;14.12;89.53;101469.28;5078717;27;45626;-66
2024/03/13 09:19:08;;;;;;;;;2.00;1.00;;;;;14.11;89.63;101462.16;5077444;28;46330;-66
2024/03/13 09:21:34;;;;;;;;;2.00;2.00;;;;;14.14;89.34;101472.78;5078955;28;45558;-65
2024/03/13 09:24:00;;;;;;;;;4.00;2.00;;;;;14.12;89.47;101463.91;5077627;27;45352;-66
2024/03/13 09:26:25;;;;;;;;;1.00;1.00;;;;;14.06;89.46;101448.88;5077899;27;45373;-65
2024/03/13 09:28:50;;;;;;;;;1.00;1.00;;;;;14.17;89.28;101467.31;5079262;27;45490;-65
2024/03/13 09:31:16;;;;;;;;;1.00;0.00;;;;;14.16;89.13;101455.69;5077845;27;50960;-65
2024/03/13 09:33:41;;;;;;;;;2.25;1.75;;;;;14.16;88.82;101461.03;5077034;27;45689;-65
2024/03/13 09:36:12;;;;;;;;;2.00;2.00;;;;;14.19;89.05;101458.25;5077279;27;58336;-66
2024/03/13 09:38:38;;;;;;;;;3.00;3.00;;;;;14.20;88.45;101457.34;5078592;27;45606;-65
2024/03/13 09:41:06;;;;;;;;;3.50;3.00;;;;;14.20;88.60;101457.34;5077219;27;46289;-66
2024/03/13 09:43:32;;;;;;;;;2.75;2.75;;;;;14.19;88.67;101446.66;5076401;27;45699;-66
2024/03/13 09:45:59;;;;;;;;;3.75;1.75;;;;;14.25;88.80;101455.34;5077588;27;45371;-66
2024/03/13 09:48:25;;;;;;;;;2.25;2.25;;;;;14.27;88.97;101458.84;5077194;27;45602;-65
2024/03/13 09:50:51;;;;;;;;;3.00;3.00;;;;;14.29;88.98;101456.13;5077397;27;46047;-65
2024/03/13 09:53:17;;;;;;;;;2.50;2.00;;;;;14.20;88.15;101443.91;5080804;27;45409;-66
2024/03/13 09:55:44;;;;;;;;;3.75;3.75;;;;;14.30;88.53;101452.50;5077071;27;45504;-65
2024/03/13 09:58:13;;;;;;;;;3.25;2.00;;;;;14.29;88.75;101450.75;5099312;27;45345;-65
2024/03/13 10:00:39;;;;;;;;;1.00;1.00;;;;;14.32;88.72;101458.69;5080887;27;45410;-65
2024/03/13 10:03:17;;;;;;;;;1.00;1.00;;;;;14.36;88.28;101454.09;5078427;27;45596;-65
2024/03/13 10:05:44;;;;;;;;;3.00;2.00;;;;;14.39;88.08;101454.84;5077954;27;45414;-67
2024/03/13 10:08:12;;;;;;;;;2.50;2.00;;;;;14.42;88.60;101456.56;5077791;27;45472;-70
2024/03/13 10:10:39;;;;;;;;;3.00;3.00;;;;;14.45;88.41;101461.81;5076674;28;46068;-70
2024/03/13 10:13:07;;;;;;;;;4.00;4.00;;;;;14.49;87.93;101452.69;5078564;27;45338;-70
2024/03/13 10:15:33;;;;;;;;;3.50;3.00;;;;;14.51;87.85;101458.88;5075870;27;45450;-70
2024/03/13 10:18:10;;;;;;;;;2.25;2.25;;;;;14.55;87.54;101447.09;5077357;27;45463;-70
2024/03/13 10:21:01;;;;;;;;;5.00;3.00;;;;;14.55;87.62;101444.41;5066587;28;46299;-70
2024/03/13 10:23:27;;;;;;;;;2.00;2.00;;;;;14.57;87.57;101447.03;5052618;28;45549;-70
2024/03/13 10:25:58;;;;;;;;;2.00;2.00;;;;;14.62;87.56;101443.28;5077477;27;45662;-68
2024/03/13 10:28:25;;;;;;;;;1.00;1.00;;;;;14.68;87.58;101443.97;5075956;27;45418;-70
2024/03/13 10:30:52;;;;;;;;;1.75;1.75;;;;;14.68;87.22;101444.84;5077260;27;45365;-70
2024/03/13 10:33:18;;;;;;;;;2.75;2.75;;;;;14.60;87.24;101428.13;5076693;27;45895;-70
2024/03/13 10:35:44;;;;;;;;;3.00;2.00;;;;;14.68;86.49;101447.53;5078061;27;45625;-70
2024/03/13 10:38:14;;;;;;;;;3.25;2.75;;;;;14.64;87.47;101446.75;5076238;27;45371;-70
2024/03/13 10:40:40;;;;;;;;;1.00;1.00;;;;;14.60;87.45;101436.19;5077052;27;47218;-71
2024/03/13 10:43:12;;;;;;;;;1.00;1.00;;;;;14.67;87.61;101450.25;5076602;28;45482;-70
2024/03/13 10:45:42;;;;;;;;;2.00;2.00;;;;;14.71;87.74;101451.91;5077398;27;45587;-70
2024/03/13 10:48:11;;;;;;;;;2.50;2.00;;;;;14.74;87.61;101444.59;5076737;27;45394;-70
2024/03/13 10:50:37;;;;;;;;;2.00;0.75;;;;;14.73;86.35;101433.91;5070606;28;45528;-70
2024/03/13 10:53:05;;;;;;;;;0.50;0.00;;;;;14.79;85.95;101437.25;5081977;27;45470;-67
2024/03/13 10:55:31;;;;;;;;;0.00;0.00;;;;;14.79;85.11;101431.00;5077670;27;45315;-69
2024/03/13 10:57:57;;;;;;;;;0.00;0.00;;;;;14.84;84.95;101431.69;5077182;27;45424;-69
2024/03/13 11:00:22;;;;;;;;;0.75;0.00;;;;;14.84;84.85;101420.94;5077242;27;45958;-70
2024/03/13 11:02:50;;;;;;;;;0.00;0.00;;;;;14.86;85.07;101426.25;5077062;28;45479;-71
2024/03/13 11:05:17;;;;;;;;;0.25;0.25;;;;;14.87;85.12;101431.56;5077101;27;45458;-70
2024/03/13 11:07:42;;;;;;;;;0.00;0.00;;;;;14.89;84.87;101435.06;5076912;27;45398;-70
2024/03/13 11:10:21;;;;;;;;;1.00;0.00;;;;;14.89;84.49;101418.94;5076656;28;45373;-70
2024/03/13 11:12:51;;;;;;;;;0.00;0.00;;;;;14.89;84.36;101431.53;5077239;27;45304;-71
2024/03/13 11:15:30;;;;;;;;;0.00;0.00;;;;;14.92;84.50;101432.28;5074645;28;45417;-70
2024/03/13 11:18:05;;;;;;;;;0.00;0.00;;;;;14.95;84.60;101433.94;5075062;28;45560;-70
2024/03/13 11:20:43;;;;;;;;;0.00;0.00;;;;;14.95;83.84;101433.94;5069281;28;46543;-71
2024/03/13 11:23:17;;;;;;;;;0.00;0.00;;;;;14.93;83.22;101431.31;5076793;27;45513;-71
2024/03/13 11:25:45;;;;;;;;;0.00;0.00;;;;;14.92;83.68;101429.59;5076505;27;45519;-70
2024/03/13 11:28:19;;;;;;;;;0.00;0.00;;;;;14.94;83.36;101429.53;5075551;27;45604;-71
2024/03/13 11:30:47;;;;;;;;;0.00;0.00;;;;;14.92;83.37;101423.34;5077200;27;45740;-71
2024/03/13 11:33:12;;;;;;;;;0.00;0.00;;;;;14.94;83.31;101427.69;5077519;27;45370;-70
2024/03/13 11:35:39;;;;;;;;;0.00;0.00;;;;;14.96;83.07;101422.25;5077524;27;45546;-71
2024/03/13 11:38:06;;;;;;;;;0.00;0.00;;;;;14.96;82.92;101424.97;5077223;27;45480;-71
2024/03/13 11:40:34;;;;;;;;;0.00;0.00;;;;;14.94;83.24;101429.53;5077820;27;46662;-71
2024/03/13 11:43:01;;;;;;;;;0.00;0.00;;;;;14.96;82.92;101416.88;5077266;27;45723;-70
2024/03/13 11:45:26;;;;;;;;;0.00;0.00;;;;;14.96;83.11;101415.06;5076040;28;45415;-71